sensor_id;sensor_type;location;lat;lon;timestamp;pressure;altitude;pressure_sealevel;temperature;humidity
70758;BME280;59316;52.964;7.102;2023-05-23T00:01:10;101549.50;;;15.94;nan
70758;BME280;59316;52.964;7.102;2023-05-23T00:06:32;101551.91;;;15.97;nan
70758;BME280;59316;52.964;7.102;2023-05-23T00:11:53;101551.19;;;15.95;nan
70758;BME280;59316;52.964;7.102;2023-05-23T00:17:15;101547.72;;;15.95;nan
70758;BME280;59316;52.964;7.102;2023-05-23T00:22:37;101535.47;;;15.93;nan
70758;BME280;59316;52.964;7.102;2023-05-23T00:28:02;101543.94;;;15.73;nan
70758;BME280;59316;52.964;7.102;2023-05-23T00:33:24;101549.22;;;15.73;nan
70758;BME280;59316;52.964;7.102;2023-05-23T00:38:45;101539.53;;;15.73;nan
70758;BME280;59316;52.964;7.102;2023-05-23T00:44:07;101544.59;;;15.76;nan
70758;BME280;59316;52.964;7.102;2023-05-23T00:49:29;101549.75;;;15.65;nan
70758;BME280;59316;52.964;7.102;2023-05-23T00:54:51;101545.94;;;15.69;nan
70758;BME280;59316;52.964;7.102;2023-05-23T01:00:13;101556.31;;;15.72;nan
70758;BME280;59316;52.964;7.102;2023-05-23T01:05:34;101561.13;;;15.66;nan
70758;BME280;59316;52.964;7.102;2023-05-23T01:10:58;101558.31;;;15.69;nan
70758;BME280;59316;52.964;7.102;2023-05-23T01:16:34;101557.88;;;15.75;nan
70758;BME280;59316;52.964;7.102;2023-05-23T01:22:08;101564.09;;;15.74;nan
70758;BME280;59316;52.964;7.102;2023-05-23T01:27:52;101559.06;;;15.71;nan
70758;BME280;59316;52.964;7.102;2023-05-23T01:33:19;101556.31;;;15.72;nan
70758;BME280;59316;52.964;7.102;2023-05-23T01:38:40;101556.50;;;15.69;nan
70758;BME280;59316;52.964;7.102;2023-05-23T01:44:02;101569.06;;;15.79;nan
70758;BME280;59316;52.964;7.102;2023-05-23T01:49:25;101581.50;;;15.76;nan
70758;BME280;59316;52.964;7.102;2023-05-23T01:54:48;101593.41;;;15.69;nan
70758;BME280;59316;52.964;7.102;2023-05-23T02:00:11;101582.16;;;15.54;nan
70758;BME280;59316;52.964;7.102;2023-05-23T02:05:38;101590.69;;;15.45;nan
70758;BME280;59316;52.964;7.102;2023-05-23T02:11:00;101589.50;;;15.36;nan
70758;BME280;59316;52.964;7.102;2023-05-23T02:16:22;101599.19;;;15.36;nan
70758;BME280;59316;52.964;7.102;2023-05-23T02:21:43;101610.88;;;15.32;nan
70758;BME280;59316;52.964;7.102;2023-05-23T02:27:05;101619.31;;;15.24;nan
70758;BME280;59316;52.964;7.102;2023-05-23T02:32:26;101622.88;;;15.23;nan
70758;BME280;59316;52.964;7.102;2023-05-23T02:37:49;101622.34;;;15.18;nan
70758;BME280;59316;52.964;7.102;2023-05-23T02:43:10;101623.69;;;15.10;nan
70758;BME280;59316;52.964;7.102;2023-05-23T02:48:32;101628.03;;;15.11;nan
70758;BME280;59316;52.964;7.102;2023-05-23T02:53:53;101628.94;;;14.98;nan
70758;BME280;59316;52.964;7.102;2023-05-23T02:59:15;101626.69;;;14.91;nan
70758;BME280;59316;52.964;7.102;2023-05-23T03:04:37;101644.59;;;14.86;nan
70758;BME280;59316;52.964;7.102;2023-05-23T03:10:00;101645.31;;;14.75;nan
70758;BME280;59316;52.964;7.102;2023-05-23T03:15:21;101641.38;;;14.68;nan
70758;BME280;59316;52.964;7.102;2023-05-23T03:20:42;101650.13;;;14.69;nan
70758;BME280;59316;52.964;7.102;2023-05-23T03:26:04;101655.56;;;14.66;nan
70758;BME280;59316;52.964;7.102;2023-05-23T03:31:26;101659.34;;;14.61;nan
70758;BME280;59316;52.964;7.102;2023-05-23T03:36:47;101663.88;;;14.45;nan
70758;BME280;59316;52.964;7.102;2023-05-23T03:42:09;101654.13;;;14.47;nan
70758;BME280;59316;52.964;7.102;2023-05-23T03:47:30;101671.59;;;14.34;nan
70758;BME280;59316;52.964;7.102;2023-05-23T03:52:53;101675.28;;;14.31;nan
70758;BME280;59316;52.964;7.102;2023-05-23T03:58:14;101690.16;;;14.18;nan
70758;BME280;59316;52.964;7.102;2023-05-23T04:03:39;101701.59;;;14.02;nan
70758;BME280;59316;52.964;7.102;2023-05-23T04:09:01;101699.78;;;13.88;nan
70758;BME280;59316;52.964;7.102;2023-05-23T04:14:24;101706.97;;;13.70;nan
70758;BME280;59316;52.964;7.102;2023-05-23T04:19:47;101720.63;;;13.61;nan
70758;BME280;59316;52.964;7.102;2023-05-23T04:25:09;101721.97;;;13.68;nan
70758;BME280;59316;52.964;7.102;2023-05-23T04:30:38;101726.66;;;13.63;nan
70758;BME280;59316;52.964;7.102;2023-05-23T04:36:00;101735.22;;;13.67;nan
70758;BME280;59316;52.964;7.102;2023-05-23T04:41:21;101743.78;;;13.70;nan
70758;BME280;59316;52.964;7.102;2023-05-23T04:47:09;101740.56;;;13.65;nan
70758;BME280;59316;52.964;7.102;2023-05-23T04:52:55;101743.09;;;13.67;nan
70758;BME280;59316;52.964;7.102;2023-05-23T04:58:16;101750.41;;;13.61;nan
70758;BME280;59316;52.964;7.102;2023-05-23T05:03:38;101755.00;;;13.58;nan
70758;BME280;59316;52.964;7.102;2023-05-23T05:09:00;101770.00;;;13.56;nan
70758;BME280;59316;52.964;7.102;2023-05-23T05:14:22;101771.78;;;13.55;nan
70758;BME280;59316;52.964;7.102;2023-05-23T05:19:45;101788.38;;;13.56;nan
70758;BME280;59316;52.964;7.102;2023-05-23T05:25:07;101793.16;;;13.49;nan
70758;BME280;59316;52.964;7.102;2023-05-23T05:30:30;101797.97;;;13.57;nan
70758;BME280;59316;52.964;7.102;2023-05-23T05:35:53;101802.97;;;13.45;nan
70758;BME280;59316;52.964;7.102;2023-05-23T05:41:15;101811.22;;;13.55;nan
70758;BME280;59316;52.964;7.102;2023-05-23T05:46:42;101827.75;;;13.57;nan
70758;BME280;59316;52.964;7.102;2023-05-23T05:52:07;101821.97;;;13.51;nan
70758;BME280;59316;52.964;7.102;2023-05-23T05:57:29;101834.78;;;13.41;nan
70758;BME280;59316;52.964;7.102;2023-05-23T06:02:50;101849.25;;;13.48;nan
70758;BME280;59316;52.964;7.102;2023-05-23T06:08:25;101854.13;;;13.40;nan
70758;BME280;59316;52.964;7.102;2023-05-23T06:13:47;101867.00;;;13.28;nan
70758;BME280;59316;52.964;7.102;2023-05-23T06:19:08;101873.09;;;13.13;nan
70758;BME280;59316;52.964;7.102;2023-05-23T06:24:32;101892.16;;;13.17;nan
70758;BME280;59316;52.964;7.102;2023-05-23T06:29:55;101902.66;;;13.17;nan
70758;BME280;59316;52.964;7.102;2023-05-23T06:35:16;101894.13;;;12.95;nan
70758;BME280;59316;52.964;7.102;2023-05-23T06:40:38;101904.91;;;12.91;nan
70758;BME280;59316;52.964;7.102;2023-05-23T06:46:00;101917.00;;;12.93;nan
70758;BME280;59316;52.964;7.102;2023-05-23T06:51:21;101918.25;;;12.86;nan
70758;BME280;59316;52.964;7.102;2023-05-23T06:56:43;101919.97;;;12.87;nan
70758;BME280;59316;52.964;7.102;2023-05-23T07:02:05;101933.00;;;12.89;nan
70758;BME280;59316;52.964;7.102;2023-05-23T07:07:27;101940.78;;;12.90;nan
70758;BME280;59316;52.964;7.102;2023-05-23T07:12:48;101954.22;;;13.02;nan
70758;BME280;59316;52.964;7.102;2023-05-23T07:18:12;101957.16;;;12.95;nan
70758;BME280;59316;52.964;7.102;2023-05-23T07:23:34;101962.78;;;13.05;nan
70758;BME280;59316;52.964;7.102;2023-05-23T07:28:57;101976.44;;;13.12;nan
70758;BME280;59316;52.964;7.102;2023-05-23T07:34:19;101989.63;;;13.28;nan
70758;BME280;59316;52.964;7.102;2023-05-23T07:39:47;101996.44;;;13.80;nan
70758;BME280;59316;52.964;7.102;2023-05-23T07:45:09;101992.81;;;13.83;nan
70758;BME280;59316;52.964;7.102;2023-05-23T07:50:35;102000.00;;;13.79;nan
70758;BME280;59316;52.964;7.102;2023-05-23T07:55:56;102011.56;;;13.92;nan
70758;BME280;59316;52.964;7.102;2023-05-23T08:01:21;102012.75;;;13.71;nan
70758;BME280;59316;52.964;7.102;2023-05-23T08:06:57;102021.91;;;13.79;nan
70758;BME280;59316;52.964;7.102;2023-05-23T08:12:34;102030.72;;;13.62;nan
70758;BME280;59316;52.964;7.102;2023-05-23T08:18:04;102027.53;;;13.56;nan
70758;BME280;59316;52.964;7.102;2023-05-23T08:23:25;102038.63;;;13.94;nan
70758;BME280;59316;52.964;7.102;2023-05-23T08:28:47;102046.19;;;14.01;nan
70758;BME280;59316;52.964;7.102;2023-05-23T08:34:09;102043.34;;;14.21;nan
70758;BME280;59316;52.964;7.102;2023-05-23T08:39:32;102050.69;;;14.31;nan
70758;BME280;59316;52.964;7.102;2023-05-23T08:45:12;102052.94;;;14.69;nan
70758;BME280;59316;52.964;7.102;2023-05-23T08:50:36;102037.72;;;15.33;nan
70758;BME280;59316;52.964;7.102;2023-05-23T08:56:01;102043.34;;;16.68;nan
70758;BME280;59316;52.964;7.102;2023-05-23T09:01:33;102042.59;;;18.19;nan
70758;BME280;59316;52.964;7.102;2023-05-23T09:06:57;102046.88;;;17.33;nan
70758;BME280;59316;52.964;7.102;2023-05-23T09:12:21;102053.91;;;17.97;nan
70758;BME280;59316;52.964;7.102;2023-05-23T09:17:43;102050.75;;;18.41;nan
70758;BME280;59316;52.964;7.102;2023-05-23T09:23:05;102056.06;;;16.89;nan
70758;BME280;59316;52.964;7.102;2023-05-23T09:28:26;102058.50;;;17.56;nan
70758;BME280;59316;52.964;7.102;2023-05-23T09:33:49;102064.22;;;18.37;nan
70758;BME280;59316;52.964;7.102;2023-05-23T09:39:12;102074.69;;;17.52;nan
70758;BME280;59316;52.964;7.102;2023-05-23T09:44:40;102064.28;;;16.97;nan
70758;BME280;59316;52.964;7.102;2023-05-23T09:50:02;102082.94;;;16.68;nan
70758;BME280;59316;52.964;7.102;2023-05-23T09:55:24;102079.41;;;16.95;nan
70758;BME280;59316;52.964;7.102;2023-05-23T10:00:49;102081.88;;;17.37;nan
70758;BME280;59316;52.964;7.102;2023-05-23T10:06:31;102091.72;;;16.69;nan
70758;BME280;59316;52.964;7.102;2023-05-23T10:23:32;102097.84;;;17.35;nan
70758;BME280;59316;52.964;7.102;2023-05-23T10:28:54;102097.34;;;18.19;nan
70758;BME280;59316;52.964;7.102;2023-05-23T10:34:45;102103.47;;;17.82;nan
70758;BME280;59316;52.964;7.102;2023-05-23T10:52:12;102133.59;;;18.43;nan
70758;BME280;59316;52.964;7.102;2023-05-23T10:57:36;102119.53;;;18.91;nan
70758;BME280;59316;52.964;7.102;2023-05-23T11:02:59;102126.22;;;17.85;nan
70758;BME280;59316;52.964;7.102;2023-05-23T11:08:23;102134.97;;;17.21;nan
70758;BME280;59316;52.964;7.102;2023-05-23T11:13:53;102140.41;;;17.05;nan
70758;BME280;59316;52.964;7.102;2023-05-23T11:24:50;102146.97;;;16.99;nan
70758;BME280;59316;52.964;7.102;2023-05-23T11:30:14;102146.38;;;17.21;nan
70758;BME280;59316;52.964;7.102;2023-05-23T11:35:36;102147.69;;;17.54;nan
70758;BME280;59316;52.964;7.102;2023-05-23T11:40:59;102144.50;;;18.38;nan
70758;BME280;59316;52.964;7.102;2023-05-23T11:46:20;102152.25;;;17.91;nan
70758;BME280;59316;52.964;7.102;2023-05-23T11:51:42;102157.19;;;17.57;nan
70758;BME280;59316;52.964;7.102;2023-05-23T11:57:03;102148.84;;;17.89;nan
70758;BME280;59316;52.964;7.102;2023-05-23T12:02:27;102148.84;;;18.02;nan
70758;BME280;59316;52.964;7.102;2023-05-23T12:07:48;102163.53;;;17.80;nan
70758;BME280;59316;52.964;7.102;2023-05-23T12:13:10;102172.50;;;17.26;nan
70758;BME280;59316;52.964;7.102;2023-05-23T12:18:32;102166.81;;;16.92;nan
70758;BME280;59316;52.964;7.102;2023-05-23T12:23:53;102169.09;;;17.90;nan
70758;BME280;59316;52.964;7.102;2023-05-23T12:29:37;102169.84;;;18.42;nan
70758;BME280;59316;52.964;7.102;2023-05-23T12:34:58;102167.28;;;18.78;nan
70758;BME280;59316;52.964;7.102;2023-05-23T12:40:20;102159.84;;;18.70;nan
70758;BME280;59316;52.964;7.102;2023-05-23T12:45:41;102173.44;;;19.02;nan
70758;BME280;59316;52.964;7.102;2023-05-23T12:51:03;102164.44;;;19.86;nan
70758;BME280;59316;52.964;7.102;2023-05-23T12:56:25;102179.00;;;17.99;nan
70758;BME280;59316;52.964;7.102;2023-05-23T13:01:46;102167.00;;;18.32;nan
70758;BME280;59316;52.964;7.102;2023-05-23T13:07:08;102179.50;;;18.17;nan
70758;BME280;59316;52.964;7.102;2023-05-23T13:12:29;102199.91;;;17.38;nan
70758;BME280;59316;52.964;7.102;2023-05-23T13:17:51;102175.31;;;18.76;nan
70758;BME280;59316;52.964;7.102;2023-05-23T13:23:13;102169.47;;;19.08;nan
70758;BME280;59316;52.964;7.102;2023-05-23T13:28:34;102177.56;;;19.53;nan
70758;BME280;59316;52.964;7.102;2023-05-23T13:33:56;102176.00;;;19.15;nan
70758;BME280;59316;52.964;7.102;2023-05-23T13:39:18;102180.22;;;19.65;nan
70758;BME280;59316;52.964;7.102;2023-05-23T13:44:39;102192.00;;;18.28;nan
70758;BME280;59316;52.964;7.102;2023-05-23T13:50:02;102197.94;;;17.54;nan
70758;BME280;59316;52.964;7.102;2023-05-23T13:55:24;102196.41;;;17.24;nan
70758;BME280;59316;52.964;7.102;2023-05-23T14:00:45;102186.63;;;18.54;nan
70758;BME280;59316;52.964;7.102;2023-05-23T14:06:07;102184.50;;;18.83;nan
70758;BME280;59316;52.964;7.102;2023-05-23T14:11:28;102179.34;;;19.53;nan
70758;BME280;59316;52.964;7.102;2023-05-23T14:16:50;102175.03;;;20.87;nan
70758;BME280;59316;52.964;7.102;2023-05-23T14:22:12;102195.75;;;19.11;nan
70758;BME280;59316;52.964;7.102;2023-05-23T14:27:33;102197.25;;;17.38;nan
70758;BME280;59316;52.964;7.102;2023-05-23T14:32:55;102189.47;;;17.62;nan
70758;BME280;59316;52.964;7.102;2023-05-23T14:38:17;102199.41;;;17.71;nan
70758;BME280;59316;52.964;7.102;2023-05-23T14:43:38;102193.91;;;18.26;nan
70758;BME280;59316;52.964;7.102;2023-05-23T14:49:00;102205.59;;;17.85;nan
70758;BME280;59316;52.964;7.102;2023-05-23T14:54:21;102208.13;;;18.12;nan
70758;BME280;59316;52.964;7.102;2023-05-23T14:59:43;102210.06;;;19.33;nan
70758;BME280;59316;52.964;7.102;2023-05-23T15:05:05;102220.41;;;19.72;nan
70758;BME280;59316;52.964;7.102;2023-05-23T15:10:26;102226.22;;;18.18;nan
70758;BME280;59316;52.964;7.102;2023-05-23T15:15:48;102231.19;;;17.18;nan
70758;BME280;59316;52.964;7.102;2023-05-23T15:21:10;102238.13;;;16.65;nan
70758;BME280;59316;52.964;7.102;2023-05-23T15:26:31;102214.81;;;18.05;nan
70758;BME280;59316;52.964;7.102;2023-05-23T15:31:53;102230.16;;;18.00;nan
70758;BME280;59316;52.964;7.102;2023-05-23T15:37:15;102222.81;;;18.79;nan
70758;BME280;59316;52.964;7.102;2023-05-23T15:42:37;102225.38;;;19.05;nan
70758;BME280;59316;52.964;7.102;2023-05-23T15:47:58;102235.66;;;18.10;nan
70758;BME280;59316;52.964;7.102;2023-05-23T15:53:20;102235.56;;;18.24;nan
70758;BME280;59316;52.964;7.102;2023-05-23T15:58:42;102247.09;;;17.97;nan
70758;BME280;59316;52.964;7.102;2023-05-23T16:04:03;102249.78;;;17.17;nan
70758;BME280;59316;52.964;7.102;2023-05-23T16:09:25;102245.75;;;17.51;nan
70758;BME280;59316;52.964;7.102;2023-05-23T16:14:46;102251.22;;;18.14;nan
70758;BME280;59316;52.964;7.102;2023-05-23T16:20:08;102246.88;;;18.26;nan
70758;BME280;59316;52.964;7.102;2023-05-23T16:25:29;102256.34;;;16.97;nan
70758;BME280;59316;52.964;7.102;2023-05-23T16:30:51;102257.28;;;16.68;nan
70758;BME280;59316;52.964;7.102;2023-05-23T16:36:13;102246.44;;;17.00;nan
70758;BME280;59316;52.964;7.102;2023-05-23T16:41:34;102250.34;;;17.07;nan
70758;BME280;59316;52.964;7.102;2023-05-23T16:46:55;102252.53;;;16.01;nan
70758;BME280;59316;52.964;7.102;2023-05-23T16:52:17;102254.88;;;15.91;nan
70758;BME280;59316;52.964;7.102;2023-05-23T16:57:39;102255.25;;;16.57;nan
70758;BME280;59316;52.964;7.102;2023-05-23T17:03:00;102249.53;;;16.80;nan
70758;BME280;59316;52.964;7.102;2023-05-23T17:08:22;102251.97;;;16.54;nan
70758;BME280;59316;52.964;7.102;2023-05-23T17:13:44;102254.34;;;15.40;nan
70758;BME280;59316;52.964;7.102;2023-05-23T17:19:05;102262.91;;;14.97;nan
70758;BME280;59316;52.964;7.102;2023-05-23T17:24:27;102260.69;;;14.89;nan
70758;BME280;59316;52.964;7.102;2023-05-23T17:29:48;102269.50;;;14.72;nan
70758;BME280;59316;52.964;7.102;2023-05-23T17:35:10;102268.72;;;14.54;nan
70758;BME280;59316;52.964;7.102;2023-05-23T17:40:32;102274.16;;;14.67;nan
70758;BME280;59316;52.964;7.102;2023-05-23T17:45:53;102271.53;;;14.67;nan
70758;BME280;59316;52.964;7.102;2023-05-23T17:51:17;102281.03;;;14.70;nan
70758;BME280;59316;52.964;7.102;2023-05-23T17:56:39;102280.72;;;14.76;nan
70758;BME280;59316;52.964;7.102;2023-05-23T18:02:00;102290.78;;;14.85;nan
70758;BME280;59316;52.964;7.102;2023-05-23T18:07:22;102288.28;;;14.66;nan
70758;BME280;59316;52.964;7.102;2023-05-23T18:12:43;102294.13;;;14.22;nan
70758;BME280;59316;52.964;7.102;2023-05-23T18:18:05;102305.31;;;13.55;nan
70758;BME280;59316;52.964;7.102;2023-05-23T18:23:27;102309.91;;;13.13;nan
70758;BME280;59316;52.964;7.102;2023-05-23T18:28:48;102308.34;;;12.71;nan
70758;BME280;59316;52.964;7.102;2023-05-23T18:34:10;102314.06;;;12.41;nan
70758;BME280;59316;52.964;7.102;2023-05-23T18:39:31;102318.75;;;12.12;nan
70758;BME280;59316;52.964;7.102;2023-05-23T18:44:53;102329.56;;;12.05;nan
70758;BME280;59316;52.964;7.102;2023-05-23T18:50:14;102320.78;;;11.85;nan
70758;BME280;59316;52.964;7.102;2023-05-23T18:55:36;102319.38;;;11.76;nan
70758;BME280;59316;52.964;7.102;2023-05-23T19:00:58;102319.22;;;11.59;nan
70758;BME280;59316;52.964;7.102;2023-05-23T19:06:19;102332.81;;;11.46;nan
70758;BME280;59316;52.964;7.102;2023-05-23T19:11:41;102325.44;;;11.34;nan
70758;BME280;59316;52.964;7.102;2023-05-23T19:17:02;102337.47;;;11.16;nan
70758;BME280;59316;52.964;7.102;2023-05-23T19:22:29;102344.44;;;10.93;nan
70758;BME280;59316;52.964;7.102;2023-05-23T19:28:03;102351.94;;;10.79;nan
70758;BME280;59316;52.964;7.102;2023-05-23T19:33:24;102356.72;;;10.67;nan
70758;BME280;59316;52.964;7.102;2023-05-23T19:38:46;102354.47;;;10.57;nan
70758;BME280;59316;52.964;7.102;2023-05-23T19:44:07;102363.69;;;10.42;nan
70758;BME280;59316;52.964;7.102;2023-05-23T19:49:29;102371.09;;;10.29;nan
70758;BME280;59316;52.964;7.102;2023-05-23T19:54:50;102378.78;;;10.08;nan
70758;BME280;59316;52.964;7.102;2023-05-23T20:00:12;102384.03;;;10.07;nan
70758;BME280;59316;52.964;7.102;2023-05-23T20:05:34;102369.91;;;10.12;nan
70758;BME280;59316;52.964;7.102;2023-05-23T20:10:55;102362.41;;;10.01;nan
70758;BME280;59316;52.964;7.102;2023-05-23T20:16:17;102369.97;;;9.84;nan
70758;BME280;59316;52.964;7.102;2023-05-23T20:21:38;102373.75;;;9.74;nan
70758;BME280;59316;52.964;7.102;2023-05-23T20:27:00;102371.50;;;9.63;nan
70758;BME280;59316;52.964;7.102;2023-05-23T20:32:21;102367.50;;;9.51;nan
70758;BME280;59316;52.964;7.102;2023-05-23T20:37:43;102366.31;;;9.33;nan
70758;BME280;59316;52.964;7.102;2023-05-23T20:43:05;102360.59;;;9.20;nan
70758;BME280;59316;52.964;7.102;2023-05-23T20:48:26;102359.78;;;9.18;nan
70758;BME280;59316;52.964;7.102;2023-05-23T20:53:50;102368.56;;;9.15;nan
70758;BME280;59316;52.964;7.102;2023-05-23T20:59:11;102368.13;;;9.01;nan
70758;BME280;59316;52.964;7.102;2023-05-23T21:04:33;102371.13;;;8.87;nan
70758;BME280;59316;52.964;7.102;2023-05-23T21:09:55;102375.44;;;8.88;nan
70758;BME280;59316;52.964;7.102;2023-05-23T21:15:17;102358.75;;;8.94;nan
70758;BME280;59316;52.964;7.102;2023-05-23T21:20:38;102362.69;;;9.09;nan
70758;BME280;59316;52.964;7.102;2023-05-23T21:26:00;102361.75;;;9.10;nan
70758;BME280;59316;52.964;7.102;2023-05-23T21:31:22;102364.06;;;8.91;nan
70758;BME280;59316;52.964;7.102;2023-05-23T21:36:53;102356.47;;;8.81;nan
70758;BME280;59316;52.964;7.102;2023-05-23T21:42:14;102364.47;;;8.75;nan
70758;BME280;59316;52.964;7.102;2023-05-23T21:47:36;102358.53;;;8.70;nan
70758;BME280;59316;52.964;7.102;2023-05-23T21:52:58;102357.00;;;8.63;nan
70758;BME280;59316;52.964;7.102;2023-05-23T21:58:19;102356.34;;;8.54;nan
70758;BME280;59316;52.964;7.102;2023-05-23T22:03:41;102355.41;;;8.24;nan
70758;BME280;59316;52.964;7.102;2023-05-23T22:09:03;102354.97;;;8.06;nan
70758;BME280;59316;52.964;7.102;2023-05-23T22:14:24;102351.50;;;8.06;nan
70758;BME280;59316;52.964;7.102;2023-05-23T22:19:46;102354.28;;;7.98;nan
70758;BME280;59316;52.964;7.102;2023-05-23T22:25:07;102351.31;;;7.76;nan
70758;BME280;59316;52.964;7.102;2023-05-23T22:30:29;102358.97;;;7.84;nan
70758;BME280;59316;52.964;7.102;2023-05-23T22:35:50;102351.25;;;7.79;nan
70758;BME280;59316;52.964;7.102;2023-05-23T22:41:12;102355.72;;;7.74;nan
70758;BME280;59316;52.964;7.102;2023-05-23T22:46:34;102348.34;;;7.55;nan
70758;BME280;59316;52.964;7.102;2023-05-23T22:51:55;102356.66;;;7.32;nan
70758;BME280;59316;52.964;7.102;2023-05-23T22:57:17;102346.16;;;6.95;nan
70758;BME280;59316;52.964;7.102;2023-05-23T23:02:39;102344.59;;;6.86;nan
70758;BME280;59316;52.964;7.102;2023-05-23T23:08:00;102343.63;;;6.91;nan
70758;BME280;59316;52.964;7.102;2023-05-23T23:13:22;102342.63;;;6.97;nan
70758;BME280;59316;52.964;7.102;2023-05-23T23:18:44;102346.50;;;6.78;nan
70758;BME280;59316;52.964;7.102;2023-05-23T23:24:05;102348.06;;;6.86;nan
70758;BME280;59316;52.964;7.102;2023-05-23T23:29:26;102346.91;;;7.00;nan
70758;BME280;59316;52.964;7.102;2023-05-23T23:34:48;102338.34;;;6.95;nan
70758;BME280;59316;52.964;7.102;2023-05-23T23:40:10;102334.84;;;6.97;nan
70758;BME280;59316;52.964;7.102;2023-05-23T23:45:32;102335.63;;;7.01;nan
70758;BME280;59316;52.964;7.102;2023-05-23T23:50:53;102332.91;;;7.07;nan
70758;BME280;59316;52.964;7.102;2023-05-23T23:56:15;102333.75;;;7.09;nan
